Terminal Aerodrome Forecast
Issued by NWS

Home | Current Version | Previous Version | Text Only | Print | Product List | Glossary On
Versions: 1 2 3 4 5 6 7 8 9 10 11 12 13 14 15 16 17
318
FTUS41 KCAR 231120
TAFPQI
TAF
KPQI 231120Z 2312/2412 22004KT P6SM FEW060
     FM231900 31006KT P6SM SCT040
     FM240000 VRB03KT P6SM FEW250
     FM240500 00000KT P6SM BKN040=

USA.gov is the U.S. government's official web portal to all federal, state and local government web resources and services.